world map with LEAG marked

LEAG - Heliport

This information may not be accurate or current and is not valid for navigation or flight planning. No warranty of fitness for any purpose is made or implied.

flag of Andalusiaflag of Spain

Donate via PayPal

Additional information is available on the NEW Great Circle Mapper

Location
City:  Algeciras, Andalusia, Spain
Name:Algeciras Heliport
ICAO:LEAG

Details
Type:Heliport
Use:Public/Civil
Latitude:36°07'44"N (36.128847)
Longitude:5°26'28"W (-5.441113)
Elevation:98 ft (30 m)
Helipads:1
Largest:105 × 79 ft (32 × 24 m)

Weather
METAR:LEAG  041400Z AUTO 12008KT CAVOK 13/04 Q1028

Related Locations
Nearby:
Farthest:NZSL: 12443 mi / 20026 km
Springhill, AUK, NZ

Find:

   beyond  
but within

Other Information
Maps:
Sources:

  


 


Great Circle Mapper   Great Circle Mapper
Great Circle Mapper FAQ   Great Circle Mapper FAQ
  Karl's Home Page
KLSē   KLSē Home
   GC on Facebook
Airlines of the World   Airlines of the World
Donate via PayPal


Copyright © 2004-2020, Karl L. Swartz. All rights reserved.
All trademarks mentioned herein belong to their respective owners.

Please see credits for attribution and copyright information.

Karl Swartz <karl@kls2.com>
  Powered by FreeBSD
Valid HTML 4.01!
Labeled with ICRA
hCard Microformat
Geo Microformat